Time;durP1;ratioP1;P1;durP2;ratioP2;P2;SDS_P1;SDS_P2;PMS_P1;PMS_P2;Temp;Humidity;BMP_temperature;BMP_pressure;BME280_temperature;BME280_humidity;BME280_pressure;Samples;Min_cycle;Max_cycle;Signal;HPM_P1;HPM_P2
2022/09/15 00:01:10;;;;;;;9.73;6.75;;;;;;;14.61;100.00;99349.66;4999416;28;20042;-75
2022/09/15 00:03:37;;;;;;;10.95;6.85;;;;;;;14.61;100.00;99362.94;5002047;28;20408;-76
2022/09/15 00:06:02;;;;;;;10.23;6.18;;;;;;;14.53;100.00;99374.81;5000947;28;20046;-75
2022/09/15 00:08:28;;;;;;;9.40;5.18;;;;;;;14.48;100.00;99365.19;5000913;28;20056;-75
2022/09/15 00:10:57;;;;;;;12.00;6.25;;;;;;;14.50;100.00;99357.19;5002303;28;20072;-76
2022/09/15 00:13:24;;;;;;;8.82;6.03;;;;;;;14.47;100.00;99358.19;4999220;28;20042;-76
2022/09/15 00:15:50;;;;;;;9.75;5.80;;;;;;;14.47;100.00;99365.28;5002147;28;20042;-76
2022/09/15 00:18:16;;;;;;;8.13;6.07;;;;;;;14.43;100.00;99368.97;5000878;28;20097;-76
2022/09/15 00:20:43;;;;;;;10.10;6.60;;;;;;;14.43;100.00;99366.31;5003442;28;20562;-76
2022/09/15 00:23:10;;;;;;;14.13;7.22;;;;;;;14.44;100.00;99370.72;5003733;28;20046;-76
2022/09/15 00:25:43;;;;;;;9.77;7.82;;;;;;;14.35;100.00;99373.72;5003077;28;20040;-76
2022/09/15 00:28:08;;;;;;;11.50;7.57;;;;;;;14.32;100.00;99369.41;5000861;28;20101;-76
2022/09/15 00:30:34;;;;;;;12.82;8.20;;;;;;;14.35;100.00;99379.91;5000713;28;20034;-76
2022/09/15 00:32:59;;;;;;;12.00;7.18;;;;;;;14.35;100.00;99382.56;5001444;28;20068;-76
2022/09/15 00:35:24;;;;;;;9.90;7.25;;;;;;;14.36;100.00;99383.44;4999519;28;20038;-76
2022/09/15 00:37:50;;;;;;;10.20;6.97;;;;;;;14.28;100.00;99394.38;5003652;28;20104;-77
2022/09/15 00:40:15;;;;;;;16.67;7.80;;;;;;;14.21;100.00;99396.38;5021681;28;20041;-76
2022/09/15 00:42:40;;;;;;;12.40;7.93;;;;;;;14.22;100.00;99394.59;5009040;28;20073;-77
2022/09/15 00:45:14;;;;;;;13.80;7.43;;;;;;;14.20;100.00;99377.84;5004431;28;20104;-76
2022/09/15 00:47:40;;;;;;;14.45;7.90;;;;;;;14.17;100.00;99381.53;5002562;28;20127;-76
2022/09/15 00:50:10;;;;;;;13.40;6.97;;;;;;;14.18;100.00;99377.06;5007892;28;20113;-77
2022/09/15 00:52:43;;;;;;;14.00;7.63;;;;;;;14.15;100.00;99383.34;5009647;28;20026;-76
2022/09/15 00:55:12;;;;;;;15.82;7.60;;;;;;;14.15;100.00;99377.19;5005483;28;20496;-76
2022/09/15 00:57:45;;;;;;;12.35;8.05;;;;;;;14.07;100.00;99374.84;5002689;28;20053;-76
2022/09/15 01:00:13;;;;;;;12.75;7.47;;;;;;;14.08;100.00;99375.69;5003904;28;20029;-76
2022/09/15 01:02:42;;;;;;;8.88;6.88;;;;;;;14.05;100.00;99381.13;5004747;28;20037;-76
2022/09/15 01:05:10;;;;;;;13.75;8.65;;;;;;;14.00;100.00;99392.75;5002430;28;20034;-76
2022/09/15 01:07:45;;;;;;;16.63;7.70;;;;;;;14.01;100.00;99393.63;5013711;28;20043;-76
2022/09/15 01:10:16;;;;;;;22.35;8.25;;;;;;;14.01;100.00;99391.84;5001624;28;20045;-76
2022/09/15 01:12:42;;;;;;;18.45;8.15;;;;;;;13.89;100.00;99394.97;5005172;28;20449;-76
2022/09/15 01:15:07;;;;;;;10.95;7.35;;;;;;;13.90;100.00;99399.34;5005507;28;20081;-76
2022/09/15 01:18:02;;;;;;;12.40;8.10;;;;;;;13.88;100.00;99408.28;5003714;28;20042;-76
2022/09/15 01:20:54;;;;;;;14.00;7.53;;;;;;;13.88;100.00;99402.97;5004396;28;20045;-76
2022/09/15 01:23:46;;;;;;;17.10;7.70;;;;;;;13.92;100.00;99413.41;5004398;28;20029;-76
2022/09/15 01:26:29;;;;;;;;;;;;;;;13.92;100.00;99397.50;5008660;28;20448;-76
2022/09/15 01:29:13;;;;;;;;;;;;;;;13.88;100.00;99395.88;5004565;28;19955;-76
2022/09/15 01:34:39;;;;;;;9.85;7.35;;;;;;;13.97;100.00;99398.19;5003589;28;20134;-76
2022/09/15 01:37:18;;;;;;;16.50;9.18;;;;;;;13.97;100.00;99405.28;5001844;28;20065;-76
2022/09/15 01:39:48;;;;;;;16.23;7.80;;;;;;;13.97;100.00;99395.53;5002721;28;20042;-76
2022/09/15 01:42:15;;;;;;;12.95;8.30;;;;;;;13.99;100.00;99409.63;5006738;28;20583;-77
2022/09/15 01:44:59;;;;;;;13.10;8.05;;;;;;;13.96;100.00;99417.69;5002043;28;20042;-77
2022/09/15 01:47:28;;;;;;;16.60;7.50;;;;;;;13.96;100.00;99412.41;5001602;28;20125;-77
2022/09/15 01:49:59;;;;;;;15.43;8.50;;;;;;;13.90;100.00;99403.78;5002260;28;20077;-77
2022/09/15 01:52:26;;;;;;;15.40;7.80;;;;;;;13.88;100.00;99398.53;5003124;28;20473;-76
2022/09/15 01:55:08;;;;;;;12.57;7.72;;;;;;;13.91;100.00;99401.09;5003185;28;20034;-77
2022/09/15 01:57:34;;;;;;;20.23;8.13;;;;;;;13.93;100.00;99395.72;5004077;28;20045;-77
2022/09/15 01:59:59;;;;;;;16.83;8.25;;;;;;;13.93;100.00;99393.91;5005477;28;20034;-77
2022/09/15 02:02:36;;;;;;;13.88;7.93;;;;;;;13.93;100.00;99391.25;5010908;28;20029;-77
2022/09/15 02:05:20;;;;;;;22.75;8.18;;;;;;;13.90;100.00;99388.72;5005970;28;20507;-77
2022/09/15 02:08:04;;;;;;;21.23;9.15;;;;;;;13.77;100.00;99384.81;5004747;28;20046;-77
2022/09/15 02:10:42;;;;;;;15.13;8.43;;;;;;;13.70;100.00;99400.09;5006321;28;20029;-77
2022/09/15 02:13:32;;;;;;;12.68;8.85;;;;;;;13.58;100.00;99389.94;5004796;28;20037;-77
2022/09/15 02:15:59;;;;;;;17.30;8.93;;;;;;;13.59;100.00;99394.31;5003501;28;20034;-76
2022/09/15 02:18:33;;;;;;;19.90;8.75;;;;;;;13.58;100.00;99388.16;5001301;28;20038;-76
2022/09/15 02:21:20;;;;;;;16.00;8.57;;;;;;;13.49;100.00;99396.44;5005191;28;20041;-77
2022/09/15 02:23:54;;;;;;;21.90;9.80;;;;;;;13.55;100.00;99393.56;5006732;28;20124;-77
2022/09/15 02:26:24;;;;;;;18.90;8.98;;;;;;;13.57;100.00;99390.84;5004859;28;20476;-77
2022/09/15 02:28:53;;;;;;;18.95;9.15;;;;;;;13.51;100.00;99389.28;4983244;28;20485;-76
2022/09/15 02:31:22;;;;;;;17.35;11.15;;;;;;;13.49;100.00;99391.16;5007425;28;20069;-77
2022/09/15 02:33:55;;;;;;;19.15;9.02;;;;;;;13.48;100.00;99391.19;5006437;28;20037;-77
2022/09/15 02:36:24;;;;;;;13.52;7.40;;;;;;;13.47;100.00;99390.34;5003873;28;20480;-77
2022/09/15 02:38:56;;;;;;;16.25;8.60;;;;;;;13.46;100.00;99385.06;5001236;28;20077;-76
2022/09/15 02:41:22;;;;;;;12.20;9.60;;;;;;;13.41;100.00;99387.88;5001302;28;20356;-77
2022/09/15 02:43:48;;;;;;;15.88;9.65;;;;;;;13.46;100.00;99385.94;5003442;28;20034;-76
2022/09/15 02:46:15;;;;;;;17.10;9.02;;;;;;;13.50;100.00;99392.00;5000323;28;20509;-76
2022/09/15 02:48:40;;;;;;;17.13;10.68;;;;;;;13.53;100.00;99391.91;5003050;28;20076;-77
2022/09/15 02:51:06;;;;;;;18.88;9.65;;;;;;;13.55;100.00;99388.28;5003431;28;20068;-77
2022/09/15 02:53:31;;;;;;;16.77;9.60;;;;;;;13.50;100.00;99390.22;5001768;28;20040;-76
2022/09/15 02:55:56;;;;;;;19.55;10.13;;;;;;;13.57;100.00;99391.75;5002530;28;20108;-76
2022/09/15 02:58:22;;;;;;;16.67;9.77;;;;;;;13.56;100.00;99392.63;5006923;28;20096;-77
2022/09/15 03:00:49;;;;;;;16.33;10.88;;;;;;;13.63;100.00;99389.78;5003031;28;20095;-77
2022/09/15 03:03:14;;;;;;;18.45;10.95;;;;;;;13.66;100.00;99385.22;4998847;28;20030;-77
2022/09/15 03:05:40;;;;;;;17.80;11.20;;;;;;;13.66;100.00;99401.13;5001221;28;20040;-77
2022/09/15 03:08:05;;;;;;;17.60;11.95;;;;;;;13.58;100.00;99393.44;5000531;28;20556;-76
2022/09/15 03:10:32;;;;;;;17.95;10.75;;;;;;;13.59;100.00;99383.72;5002237;28;20505;-77
2022/09/15 03:12:57;;;;;;;19.88;11.05;;;;;;;13.56;100.00;99384.69;5000142;28;20473;-77
2022/09/15 03:15:25;;;;;;;23.38;12.43;;;;;;;13.54;100.00;99386.53;5003394;28;20053;-77
2022/09/15 03:17:51;;;;;;;24.13;10.73;;;;;;;13.48;100.00;99389.41;5000425;28;20413;-76
2022/09/15 03:20:19;;;;;;;21.35;13.35;;;;;;;13.43;100.00;99399.31;5005901;28;20045;-77
2022/09/15 03:22:44;;;;;;;18.73;12.32;;;;;;;13.36;100.00;99388.06;5001913;28;20053;-77
2022/09/15 03:25:10;;;;;;;19.50;12.15;;;;;;;13.33;100.00;99396.09;5000507;28;20629;-76
2022/09/15 03:27:36;;;;;;;16.73;10.85;;;;;;;13.30;100.00;99398.00;5003233;28;20627;-77
2022/09/15 03:30:03;;;;;;;21.65;12.65;;;;;;;13.25;100.00;99398.13;5000130;28;20125;-77
2022/09/15 03:32:28;;;;;;;21.70;12.05;;;;;;;13.21;100.00;99393.88;5001807;28;20038;-76
2022/09/15 03:34:54;;;;;;;25.25;13.48;;;;;;;13.18;100.00;99395.75;5005560;28;20037;-77
2022/09/15 03:37:19;;;;;;;26.42;12.88;;;;;;;13.13;100.00;99390.63;5002053;28;20077;-77
2022/09/15 03:39:45;;;;;;;22.55;14.60;;;;;;;13.09;100.00;99394.28;5000450;28;20487;-76
2022/09/15 03:42:11;;;;;;;19.60;11.43;;;;;;;13.04;100.00;99396.25;5002734;28;20045;-77
2022/09/15 03:44:36;;;;;;;26.45;13.63;;;;;;;12.95;100.00;99397.44;5000032;28;20089;-77
2022/09/15 03:47:02;;;;;;;17.73;11.95;;;;;;;12.92;100.00;99400.19;5002233;28;20396;-76
2022/09/15 03:49:27;;;;;;;20.73;11.30;;;;;;;12.85;100.00;99396.00;5007533;28;20476;-77
2022/09/15 03:51:53;;;;;;;14.10;10.50;;;;;;;12.81;100.00;99399.66;5009803;28;20030;-77
2022/09/15 03:54:18;;;;;;;17.35;12.38;;;;;;;12.76;100.00;99396.28;5008074;28;20160;-77
2022/09/15 03:56:47;;;;;;;18.85;10.95;;;;;;;12.67;100.00;99395.69;4999857;28;20049;-77
2022/09/15 03:59:14;;;;;;;25.40;13.32;;;;;;;12.67;100.00;99397.47;5000170;28;20524;-77
2022/09/15 04:01:40;;;;;;;29.38;14.18;;;;;;;12.63;100.00;99396.72;5001412;28;20522;-77
2022/09/15 04:04:05;;;;;;;20.92;13.93;;;;;;;12.56;100.00;99403.13;5006215;28;20118;-77
2022/09/15 04:06:31;;;;;;;26.05;14.98;;;;;;;12.61;100.00;99393.25;5003358;28;20050;-77
2022/09/15 04:08:58;;;;;;;26.23;15.45;;;;;;;12.55;100.00;99401.41;4999713;28;20034;-77
2022/09/15 04:11:23;;;;;;;26.30;15.07;;;;;;;12.59;100.00;99397.72;4998201;28;20038;-77
2022/09/15 04:13:49;;;;;;;24.73;14.50;;;;;;;12.56;100.00;99400.47;5004939;28;20104;-77
2022/09/15 04:16:17;;;;;;;25.50;15.88;;;;;;;12.55;100.00;99406.69;5004541;28;20030;-77
2022/09/15 04:18:43;;;;;;;30.13;15.25;;;;;;;12.50;100.00;99406.84;5004406;28;20037;-77
2022/09/15 04:21:14;;;;;;;27.95;17.20;;;;;;;12.49;100.00;99414.81;5009244;28;20120;-77
2022/09/15 04:23:41;;;;;;;26.05;14.95;;;;;;;12.47;100.00;99416.63;5004031;28;20033;-77
2022/09/15 04:26:13;;;;;;;24.02;14.13;;;;;;;12.46;100.00;99417.56;5009511;28;20040;-77
2022/09/15 04:28:38;;;;;;;21.50;14.32;;;;;;;12.47;100.00;99424.56;5013910;28;20088;-79
2022/09/15 04:31:06;;;;;;;30.33;18.33;;;;;;;12.35;100.00;99419.69;5013791;28;20528;-78
2022/09/15 04:33:32;;;;;;;43.97;20.60;;;;;;;12.41;100.00;99420.34;5012844;28;20041;-78
2022/09/15 04:36:02;;;;;;;20.80;14.35;;;;;;;12.55;100.00;99417.28;5013127;28;20030;-77
2022/09/15 04:38:28;;;;;;;20.75;15.40;;;;;;;12.66;100.00;99424.88;5014404;28;20045;-77
2022/09/15 04:40:54;;;;;;;34.22;18.35;;;;;;;12.73;100.00;99418.44;5014705;28;20045;-78
2022/09/15 04:43:20;;;;;;;30.30;17.80;;;;;;;12.77;100.00;99419.22;5007939;28;20508;-77
2022/09/15 04:45:45;;;;;;;29.45;19.42;;;;;;;12.76;100.00;99430.72;5008184;28;20040;-78
2022/09/15 04:48:10;;;;;;;34.35;19.15;;;;;;;12.71;100.00;99425.59;5013008;28;20103;-79
2022/09/15 04:50:36;;;;;;;36.00;18.88;;;;;;;12.67;100.00;99423.94;5006354;28;20046;-78
2022/09/15 04:53:01;;;;;;;30.67;17.58;;;;;;;12.71;100.00;99433.53;5010860;28;20119;-78
2022/09/15 04:55:27;;;;;;;37.65;21.08;;;;;;;12.66;100.00;99436.31;5015256;28;20041;-78
2022/09/15 04:57:54;;;;;;;37.97;20.65;;;;;;;12.62;100.00;99426.72;5009099;28;20046;-78
2022/09/15 05:00:19;;;;;;;35.92;20.83;;;;;;;12.54;100.00;99436.69;5008924;28;20057;-78
2022/09/15 05:02:45;;;;;;;48.92;28.52;;;;;;;12.52;100.00;99435.00;5006768;28;20041;-78
2022/09/15 05:05:10;;;;;;;30.70;18.67;;;;;;;12.52;100.00;99435.88;5003063;28;20066;-78
2022/09/15 05:07:35;;;;;;;35.35;21.02;;;;;;;12.53;100.00;99432.34;5003869;28;20048;-78
2022/09/15 05:10:01;;;;;;;33.58;21.02;;;;;;;12.50;100.00;99432.44;5004644;28;20037;-77
2022/09/15 05:12:26;;;;;;;40.83;21.50;;;;;;;12.49;100.00;99425.41;5002388;28;20041;-78
2022/09/15 05:14:52;;;;;;;40.83;20.45;;;;;;;12.52;100.00;99429.72;5005367;28;20041;-78
2022/09/15 05:17:17;;;;;;;34.42;19.55;;;;;;;12.49;100.00;99425.41;5001436;28;20066;-77
2022/09/15 05:19:42;;;;;;;46.78;23.25;;;;;;;12.51;100.00;99428.88;5004333;28;20042;-78
2022/09/15 05:22:07;;;;;;;34.28;21.55;;;;;;;12.48;100.00;99429.81;5009909;28;20050;-78
2022/09/15 05:24:33;;;;;;;45.10;23.15;;;;;;;12.52;100.00;99427.94;5004327;28;20033;-78
2022/09/15 05:26:58;;;;;;;35.05;20.40;;;;;;;12.51;100.00;99420.94;5004847;28;20035;-78
2022/09/15 05:29:24;;;;;;;30.42;19.88;;;;;;;12.50;100.00;99427.16;5011231;28;20049;-78
2022/09/15 05:31:49;;;;;;;51.17;23.02;;;;;;;12.53;100.00;99431.47;5001497;28;20118;-78
2022/09/15 05:34:14;;;;;;;39.75;23.10;;;;;;;12.56;100.00;99428.72;5009040;28;20052;-78
2022/09/15 05:36:40;;;;;;;39.08;20.30;;;;;;;12.60;100.00;99427.69;5006335;28;20030;-77
2022/09/15 05:39:05;;;;;;;35.78;23.05;;;;;;;12.65;100.00;99431.06;5006777;28;20119;-78
2022/09/15 05:41:31;;;;;;;38.85;22.48;;;;;;;12.71;100.00;99434.38;5008335;28;20042;-78
2022/09/15 05:43:57;;;;;;;40.95;23.95;;;;;;;12.80;100.00;99425.28;5002842;28;20038;-78
2022/09/15 05:46:27;;;;;;;33.28;21.25;;;;;;;12.89;100.00;99424.09;5005224;28;20492;-78
2022/09/15 05:48:55;;;;;;;45.45;24.73;;;;;;;12.96;100.00;99428.28;5002424;28;20038;-78
2022/09/15 05:51:21;;;;;;;42.85;25.83;;;;;;;13.00;100.00;99431.72;5010137;28;20112;-78
2022/09/15 05:53:47;;;;;;;47.00;26.85;;;;;;;13.02;100.00;99428.09;5003898;28;20125;-78
2022/09/15 05:56:14;;;;;;;39.95;25.40;;;;;;;13.06;100.00;99436.78;5001618;28;20483;-78
2022/09/15 05:58:41;;;;;;;43.35;24.40;;;;;;;13.08;100.00;99433.16;5000825;28;20042;-78
2022/09/15 06:01:11;;;;;;;52.90;29.02;;;;;;;13.12;100.00;99426.84;4999403;28;20042;-78
2022/09/15 06:03:36;;;;;;;42.55;28.13;;;;;;;13.22;100.00;99434.47;5002256;28;20531;-78
2022/09/15 06:06:04;;;;;;;45.15;27.40;;;;;;;13.28;100.00;99436.94;5004308;28;20065;-77
2022/09/15 06:08:41;;;;;;;38.30;25.92;;;;;;;13.42;100.00;99433.84;5001120;28;20038;-78
2022/09/15 06:11:10;;;;;;;40.25;25.38;;;;;;;13.56;100.00;99435.06;5002507;28;20095;-78
2022/09/15 06:13:36;;;;;;;45.35;27.88;;;;;;;13.75;100.00;99429.09;4999484;28;20405;-78
2022/09/15 06:16:08;;;;;;;44.88;28.05;;;;;;;13.89;100.00;99437.41;5004665;28;20045;-78
2022/09/15 06:18:36;;;;;;;37.92;24.30;;;;;;;14.00;100.00;99443.16;4982571;28;20088;-78
2022/09/15 06:21:07;;;;;;;45.67;24.38;;;;;;;14.12;100.00;99441.84;5006160;28;20049;-78
2022/09/15 06:23:32;;;;;;;43.67;26.13;;;;;;;14.22;100.00;99437.91;5000835;28;20548;-79
2022/09/15 06:26:06;;;;;;;31.65;23.00;;;;;;;14.34;100.00;99441.88;5003734;28;20038;-79
2022/09/15 06:28:32;;;;;;;38.72;24.10;;;;;;;14.47;100.00;99444.94;5001899;28;20050;-78
2022/09/15 06:30:58;;;;;;;42.20;25.40;;;;;;;14.55;100.00;99444.66;5003342;28;20029;-78
2022/09/15 06:33:23;;;;;;;34.00;23.25;;;;;;;14.59;100.00;99440.94;5000532;28;20033;-79
2022/09/15 06:35:48;;;;;;;31.65;21.70;;;;;;;14.71;100.00;99443.13;5003776;28;20582;-78
2022/09/15 06:38:13;;;;;;;30.17;22.52;;;;;;;14.72;100.00;99447.47;5012990;28;20046;-79
2022/09/15 06:40:39;;;;;;;30.92;22.88;;;;;;;14.80;100.00;99437.44;5001987;28;20103;-78
2022/09/15 06:43:04;;;;;;;27.02;18.67;;;;;;;14.87;100.00;99446.88;5001675;28;20064;-78
2022/09/15 06:45:30;;;;;;;29.52;20.30;;;;;;;14.80;100.00;99439.22;5002857;28;20099;-78
2022/09/15 06:47:55;;;;;;;26.73;19.02;;;;;;;14.83;100.00;99450.59;5000899;28;20132;-78
2022/09/15 06:50:20;;;;;;;29.55;18.60;;;;;;;14.81;100.00;99446.28;5003848;28;20175;-79
2022/09/15 06:52:45;;;;;;;37.10;22.27;;;;;;;14.81;100.00;99447.13;5019658;28;20027;-79
2022/09/15 06:55:11;;;;;;;27.67;19.50;;;;;;;14.78;100.00;99457.88;5010707;28;20177;-78
2022/09/15 06:57:36;;;;;;;31.90;22.17;;;;;;;14.81;100.00;99455.09;4999354;28;20042;-79
2022/09/15 07:00:04;;;;;;;31.00;20.52;;;;;;;15.00;100.00;99451.69;5006890;28;20034;-78
2022/09/15 07:02:30;;;;;;;25.92;17.40;;;;;;;15.16;100.00;99452.75;5005591;28;20412;-78
2022/09/15 07:04:55;;;;;;;24.58;16.73;;;;;;;15.27;100.00;99450.53;5002040;28;20030;-78
2022/09/15 07:07:20;;;;;;;22.98;15.82;;;;;;;15.38;100.00;99449.19;5005402;28;20029;-78
2022/09/15 07:09:45;;;;;;;26.10;14.98;;;;;;;15.36;100.00;99453.72;5006256;28;20045;-78
2022/09/15 07:12:11;;;;;;;18.83;15.30;;;;;;;15.38;100.00;99452.72;4998812;28;20093;-79
2022/09/15 07:14:36;;;;;;;21.60;14.70;;;;;;;15.31;100.00;99446.78;5005178;28;20034;-79
2022/09/15 07:17:01;;;;;;;19.90;15.68;;;;;;;15.24;100.00;99445.31;5003938;28;20042;-78
2022/09/15 07:19:27;;;;;;;23.33;14.50;;;;;;;15.20;99.22;99454.38;5006342;28;20034;-79
2022/09/15 07:21:52;;;;;;;23.00;13.23;;;;;;;15.13;98.79;99447.56;5006228;28;20034;-79
2022/09/15 07:24:17;;;;;;;20.13;12.98;;;;;;;15.20;98.14;99454.38;5003431;28;20520;-78
2022/09/15 07:26:43;;;;;;;21.00;13.25;;;;;;;15.34;96.93;99459.09;5002467;28;20405;-79
2022/09/15 07:29:08;;;;;;;20.83;13.52;;;;;;;15.42;98.27;99459.63;4997718;28;20485;-78
2022/09/15 07:31:36;;;;;;;17.83;13.82;;;;;;;15.54;96.88;99447.59;5004272;28;20053;-78
2022/09/15 07:34:02;;;;;;;18.98;12.15;;;;;;;15.77;95.14;99450.16;5001980;28;20049;-79
2022/09/15 07:36:29;;;;;;;20.60;13.05;;;;;;;15.69;94.22;99452.28;5001776;28;20038;-79
2022/09/15 07:38:54;;;;;;;17.55;11.60;;;;;;;15.60;92.42;99459.78;5004046;28;20034;-78
2022/09/15 07:41:25;;;;;;;20.35;11.32;;;;;;;15.47;93.85;99462.09;5009117;28;20137;-79
2022/09/15 07:43:52;;;;;;;17.23;11.07;;;;;;;15.49;95.01;99455.78;5003265;28;20121;-78
2022/09/15 07:46:19;;;;;;;18.08;9.60;;;;;;;15.40;94.97;99463.28;5001756;28;20492;-79
2022/09/15 07:48:46;;;;;;;13.48;9.18;;;;;;;15.38;95.92;99467.78;5006653;28;20037;-79
2022/09/15 07:51:13;;;;;;;18.88;10.40;;;;;;;15.43;95.41;99472.00;5010794;28;20064;-78
2022/09/15 07:53:38;;;;;;;21.88;11.77;;;;;;;15.45;95.35;99474.59;5003890;28;20461;-79
2022/09/15 07:56:04;;;;;;;15.55;10.00;;;;;;;15.49;94.10;99481.50;5004991;28;20069;-78
2022/09/15 07:58:32;;;;;;;14.25;10.77;;;;;;;15.56;94.30;99482.94;5001663;28;20131;-79
2022/09/15 08:01:02;;;;;;;10.35;7.97;;;;;;;15.54;92.26;99487.50;5007504;28;20042;-79
2022/09/15 08:03:28;;;;;;;13.35;9.20;;;;;;;15.53;93.04;99491.94;5004271;28;20042;-79
2022/09/15 08:05:58;;;;;;;12.68;8.75;;;;;;;15.64;91.29;99499.47;5005496;28;20044;-78
2022/09/15 08:08:23;;;;;;;16.80;9.68;;;;;;;15.61;91.49;99491.59;5003345;28;20034;-78
2022/09/15 08:10:48;;;;;;;15.90;10.23;;;;;;;15.70;92.78;99480.59;5003437;28;20044;-78
2022/09/15 08:13:14;;;;;;;13.23;9.05;;;;;;;15.80;91.63;99475.75;5005865;28;20392;-78
2022/09/15 08:15:39;;;;;;;12.27;8.27;;;;;;;15.86;89.75;99480.78;5004462;28;20484;-78
2022/09/15 08:18:05;;;;;;;15.73;9.20;;;;;;;15.91;89.74;99480.59;5009100;28;20543;-78
2022/09/15 08:20:30;;;;;;;13.77;9.55;;;;;;;16.09;88.47;99482.41;5006912;28;20033;-79
2022/09/15 08:22:55;;;;;;;13.77;8.63;;;;;;;16.33;87.21;99485.75;5010180;28;20046;-77
2022/09/15 08:25:21;;;;;;;10.07;8.20;;;;;;;16.50;87.72;99478.75;5007302;28;20050;-79
2022/09/15 08:27:46;;;;;;;13.23;8.85;;;;;;;16.72;86.72;99481.28;5002363;28;20121;-79
2022/09/15 08:30:12;;;;;;;13.02;7.88;;;;;;;16.90;84.03;99483.09;5007628;28;20117;-79
2022/09/15 08:32:37;;;;;;;10.73;7.50;;;;;;;16.94;83.46;99481.97;5014137;28;20164;-78
2022/09/15 08:35:03;;;;;;;11.32;6.88;;;;;;;17.07;84.57;99477.78;5007917;28;20030;-79
2022/09/15 08:37:28;;;;;;;10.93;8.02;;;;;;;17.10;80.74;99482.09;5007224;28;20088;-79
2022/09/15 08:39:53;;;;;;;11.60;7.38;;;;;;;17.06;79.88;99478.72;5012030;28;20040;-80
2022/09/15 08:42:21;;;;;;;13.95;7.97;;;;;;;17.09;80.49;99491.91;5016458;28;20042;-79
2022/09/15 08:44:54;;;;;;;11.02;7.72;;;;;;;17.22;78.27;99496.63;5011270;28;20037;-79
2022/09/15 08:47:43;;;;;;;9.50;7.28;;;;;;;17.15;80.25;99503.19;5012918;28;20037;-79
2022/09/15 08:50:30;;;;;;;10.23;6.93;;;;;;;17.40;77.89;99494.84;5004881;28;20056;-79
2022/09/15 08:53:01;;;;;;;8.40;6.10;;;;;;;17.60;78.51;99492.00;5006604;28;20417;-78
2022/09/15 08:55:39;;;;;;;11.18;7.90;;;;;;;17.71;75.69;99492.31;5012109;28;20045;-78
2022/09/15 08:58:05;;;;;;;7.32;6.47;;;;;;;17.78;75.20;99490.19;5030626;28;20111;-78
2022/09/15 09:00:32;;;;;;;11.95;6.55;;;;;;;17.58;76.21;99490.34;5014513;28;20477;-78
2022/09/15 09:03:36;;;;;;;11.32;6.43;;;;;;;17.62;77.06;99491.94;5014264;28;20523;-78
2022/09/15 09:06:32;;;;;;;11.70;6.18;;;;;;;17.71;75.81;99486.09;5018021;28;20037;-79
2022/09/15 09:09:07;;;;;;;11.07;6.75;;;;;;;17.81;74.87;99497.19;5009656;28;20088;-78
2022/09/15 09:11:57;;;;;;;10.63;7.60;;;;;;;17.70;75.10;99500.41;5002825;28;20046;-78
2022/09/15 09:14:45;;;;;;;10.95;6.50;;;;;;;17.61;76.03;99490.22;5006043;28;20105;-78
2022/09/15 09:17:16;;;;;;;8.95;5.68;;;;;;;17.91;76.93;99501.09;5006123;28;20491;-78
2022/09/15 09:19:56;;;;;;;10.48;6.90;;;;;;;17.75;76.64;99498.34;5006932;28;20048;-79
2022/09/15 09:22:28;;;;;;;7.78;6.50;;;;;;;17.78;75.84;99486.66;5006249;28;20080;-79
2022/09/15 09:24:56;;;;;;;8.57;7.45;;;;;;;17.88;76.67;99493.28;5007532;28;20552;-78
2022/09/15 09:27:27;;;;;;;11.70;6.82;;;;;;;18.11;74.83;99484.91;5002881;28;20501;-79
2022/09/15 09:30:00;;;;;;;7.75;6.63;;;;;;;18.23;73.53;99486.03;5004829;28;20062;-79
2022/09/15 09:32:33;;;;;;;6.75;5.95;;;;;;;18.30;74.30;99490.09;5002959;28;20038;-79
2022/09/15 09:35:27;;;;;;;6.95;5.80;;;;;;;18.16;72.44;99490.84;5005162;28;20033;-78
2022/09/15 09:37:52;;;;;;;6.82;5.70;;;;;;;18.26;71.60;99485.00;5002184;28;20413;-78
2022/09/15 09:40:18;;;;;;;7.78;4.88;;;;;;;18.36;72.07;99487.09;5002863;28;20041;-79
2022/09/15 09:42:44;;;;;;;8.77;5.35;;;;;;;18.38;69.29;99493.22;5002957;28;20034;-79
2022/09/15 09:45:12;;;;;;;10.40;6.15;;;;;;;18.31;70.02;99483.84;5006591;28;20607;-77
2022/09/15 09:47:39;;;;;;;6.40;5.05;;;;;;;18.33;70.96;99481.91;5007743;28;20038;-78
2022/09/15 09:50:35;;;;;;;6.00;4.70;;;;;;;18.17;69.97;99481.88;5006476;28;20117;-78
2022/09/15 09:53:30;;;;;;;9.07;5.22;;;;;;;17.79;70.76;99493.69;5004704;28;20041;-78
2022/09/15 09:56:10;;;;;;;11.02;5.25;;;;;;;17.63;71.02;99490.97;5003954;28;20029;-78
2022/09/15 09:58:36;;;;;;;7.57;5.53;;;;;;;17.60;70.94;99502.66;5002366;28;20049;-77
2022/09/15 10:01:12;;;;;;;9.48;5.63;;;;;;;17.51;72.51;99501.34;5007928;28;20038;-78
2022/09/15 10:03:40;;;;;;;9.68;5.20;;;;;;;17.58;72.68;99482.34;5004796;28;20683;-78
2022/09/15 10:06:19;;;;;;;7.70;6.85;;;;;;;17.77;72.94;99493.81;4999109;28;20516;-78
2022/09/15 10:08:56;;;;;;;9.63;5.88;;;;;;;18.14;71.31;99475.84;4998811;28;20028;-78
2022/09/15 10:11:42;;;;;;;6.80;6.20;;;;;;;18.46;71.58;99476.75;5008409;28;20052;-78
2022/09/15 10:14:18;;;;;;;6.30;5.70;;;;;;;18.70;70.55;99474.53;5005879;28;20041;-78
2022/09/15 10:16:55;;;;;;;7.60;5.85;;;;;;;18.89;69.50;99469.03;5002524;28;20034;-78
2022/09/15 10:19:20;;;;;;;8.10;5.50;;;;;;;18.82;68.70;99465.00;5000601;28;20103;-78
2022/09/15 10:21:46;;;;;;;8.98;5.75;;;;;;;18.77;68.37;99465.25;5005187;28;20049;-78
2022/09/15 10:24:26;;;;;;;7.22;5.55;;;;;;;18.89;68.56;99452.13;5008940;28;20038;-78
2022/09/15 10:27:05;;;;;;;8.07;5.35;;;;;;;19.17;65.41;99470.97;5009352;28;20044;-78
2022/09/15 10:29:37;;;;;;;7.57;5.60;;;;;;;19.01;66.09;99459.44;5004766;28;20556;-78
2022/09/15 10:32:15;;;;;;;;;;;;;;;18.95;67.50;99466.00;5006130;28;20034;-78
2022/09/15 10:34:42;;;;;;;9.30;5.60;;;;;;;19.13;64.15;99463.22;5000920;28;19924;-79
2022/09/15 10:37:30;;;;;;;7.00;5.45;;;;;;;19.03;64.54;99460.22;5003569;28;20121;-78
2022/09/15 10:39:58;;;;;;;8.15;6.20;;;;;;;18.93;63.87;99448.34;5000426;28;20041;-78
2022/09/15 10:42:52;;;;;;;6.00;4.97;;;;;;;18.86;64.00;99453.16;5002013;28;20034;-78
2022/09/15 10:45:28;;;;;;;8.02;5.43;;;;;;;18.89;66.03;99441.41;5003515;28;20042;-78
2022/09/15 10:48:05;;;;;;;8.57;5.47;;;;;;;19.04;63.22;99451.22;5000573;28;20117;-78
2022/09/15 10:50:55;;;;;;;10.45;5.70;;;;;;;19.05;63.40;99447.63;5001732;28;20072;-78
2022/09/15 10:53:35;;;;;;;6.63;5.32;;;;;;;19.05;64.20;99444.94;5002256;28;21085;-77
2022/09/15 10:56:19;;;;;;;6.10;5.50;;;;;;;19.16;64.20;99442.50;5001275;28;20038;-79
2022/09/15 10:59:02;;;;;;;8.23;5.65;;;;;;;19.29;64.59;99456.03;4999704;28;20045;-79
2022/09/15 11:01:27;;;;;;;6.13;5.50;;;;;;;18.97;63.90;99455.25;5002834;28;20095;-78
2022/09/15 11:04:01;;;;;;;8.05;4.28;;;;;;;18.64;65.03;99458.84;5000069;28;20038;-78
2022/09/15 11:06:35;;;;;;;6.22;5.53;;;;;;;18.47;65.56;99461.59;5007645;28;20278;-78
2022/09/15 11:09:14;;;;;;;9.82;5.18;;;;;;;18.36;64.76;99455.03;5004515;28;20081;-78
2022/09/15 11:12:18;;;;;;;9.73;4.68;;;;;;;17.89;66.22;99463.84;5001491;28;20073;-78
2022/09/15 11:15:02;;;;;;;5.72;4.88;;;;;;;17.79;68.41;99462.59;5000242;28;20493;-79
2022/09/15 11:17:55;;;;;;;5.80;4.82;;;;;;;17.74;67.89;99473.47;5000246;28;20413;-78
2022/09/15 11:20:51;;;;;;;7.20;6.03;;;;;;;17.52;70.59;99472.84;5005814;28;20018;-78
2022/09/15 11:23:23;;;;;;;7.45;4.68;;;;;;;17.52;70.12;99476.38;4999600;28;20511;-79
2022/09/15 11:25:56;;;;;;;5.82;4.47;;;;;;;17.51;70.13;99472.00;5001118;28;20034;-78
2022/09/15 11:28:37;;;;;;;6.97;4.85;;;;;;;17.47;70.06;99470.41;4999759;28;20038;-78
2022/09/15 11:31:14;;;;;;;5.60;4.97;;;;;;;17.41;70.76;99472.56;5000692;28;20121;-79
2022/09/15 11:33:48;;;;;;;12.80;5.72;;;;;;;17.40;70.92;99473.50;5003115;28;20030;-78
2022/09/15 11:36:28;;;;;;;5.78;5.15;;;;;;;17.36;71.22;99472.78;5003957;28;20026;-78